Time;durP1;ratioP1;P1;durP2;ratioP2;P2;SDS_P1;SDS_P2;PMS_P1;PMS_P2;Temp;Humidity;BMP_temperature;BMP_pressure;BME280_temperature;BME280_humidity;BME280_pressure;Samples;Min_cycle;Max_cycle;Signal;HPM_P1;HPM_P2
2022/01/06 00:00:41;;;;;;;3.97;1.70;;;27.30;69.10;;;;;;4168025;28;20076;-50
2022/01/06 00:02:43;;;;;;;5.20;2.00;;;27.30;69.00;;;;;;4159936;28;20845;-48
2022/01/06 00:04:45;;;;;;;5.45;2.10;;;27.30;69.00;;;;;;4162492;28;20296;-53
2022/01/06 00:06:48;;;;;;;3.78;1.80;;;27.30;69.10;;;;;;4172029;28;20036;-47
2022/01/06 00:08:50;;;;;;;5.30;1.67;;;27.30;69.00;;;;;;4156575;28;20039;-49
2022/01/06 00:10:52;;;;;;;5.88;1.50;;;27.30;69.10;;;;;;4161195;28;20153;-52
2022/01/06 00:15:11;;;;;;;6.13;1.70;;;27.30;69.20;;;;;;4169915;28;20039;-50
2022/01/06 00:24:29;;;;;;;5.50;2.50;;;27.30;69.10;;;;;;4166411;28;20043;-49
2022/01/06 00:26:30;;;;;;;;;;;27.30;69.10;;;;;;4162956;28;20047;-48
2022/01/06 00:28:33;;;;;;;6.85;1.92;;;27.30;69.10;;;;;;4159697;28;19942;-49
2022/01/06 00:30:35;;;;;;;4.35;1.77;;;27.30;69.10;;;;;;4164192;28;20051;-52
2022/01/06 00:32:37;;;;;;;5.87;2.03;;;27.30;69.20;;;;;;4167723;28;21239;-47
2022/01/06 00:34:41;;;;;;;5.47;2.10;;;27.30;69.10;;;;;;4161299;28;20028;-50
2022/01/06 00:36:44;;;;;;;4.15;1.83;;;27.30;69.10;;;;;;4158675;28;20067;-51
2022/01/06 00:38:45;;;;;;;;;;;27.30;69.20;;;;;;4172019;28;20115;-51
2022/01/06 00:40:48;;;;;;;6.20;1.88;;;27.30;69.10;;;;;;4164343;28;21502;-46
2022/01/06 00:42:50;;;;;;;4.20;1.37;;;27.30;69.10;;;;;;4162089;28;20127;-50
2022/01/06 00:44:52;;;;;;;5.38;1.80;;;27.30;69.00;;;;;;4166259;28;20753;-53
2022/01/06 00:46:54;;;;;;;5.27;1.63;;;27.30;69.00;;;;;;4166622;28;20043;-47
2022/01/06 00:48:57;;;;;;;5.55;1.55;;;27.30;69.00;;;;;;4160986;28;20058;-48
2022/01/06 00:50:59;;;;;;;7.13;2.00;;;27.30;69.10;;;;;;4161575;28;20036;-49
2022/01/06 00:53:04;;;;;;;3.28;1.63;;;27.30;69.00;;;;;;4171087;28;20452;-48
2022/01/06 00:55:06;;;;;;;5.25;1.77;;;27.30;69.00;;;;;;4164217;28;20428;-49
2022/01/06 00:57:09;;;;;;;5.40;1.45;;;27.30;69.10;;;;;;4163105;28;20511;-46
2022/01/06 00:59:11;;;;;;;4.20;1.63;;;27.30;69.10;;;;;;4163408;28;20079;-52
2022/01/06 01:01:13;;;;;;;5.20;1.95;;;27.30;69.20;;;;;;4155838;28;20082;-49
2022/01/06 01:03:20;;;;;;;5.47;1.80;;;27.30;69.10;;;;;;4144412;28;20036;-50
2022/01/06 01:05:23;;;;;;;5.45;1.75;;;27.30;69.20;;;;;;4162600;28;20040;-45
2022/01/06 01:07:25;;;;;;;6.22;1.40;;;27.30;69.10;;;;;;4164096;28;20410;-51
2022/01/06 01:09:27;;;;;;;5.90;1.77;;;27.30;69.70;;;;;;4172353;28;20704;-51
2022/01/06 01:11:29;;;;;;;3.65;1.40;;;27.40;68.60;;;;;;4159449;28;20307;-46
2022/01/06 01:13:32;;;;;;;6.07;1.80;;;27.40;69.00;;;;;;4162941;28;20042;-47
2022/01/06 01:15:42;;;;;;;4.95;1.95;;;27.40;69.00;;;;;;4172472;28;20046;-49
2022/01/06 01:17:45;;;;;;;4.75;1.50;;;27.40;69.00;;;;;;4172129;28;20067;-46
2022/01/06 01:19:47;;;;;;;6.57;1.67;;;27.40;69.00;;;;;;4163044;28;20068;-46
2022/01/06 01:21:50;;;;;;;4.38;1.75;;;27.40;69.00;;;;;;4163096;28;20070;-49
2022/01/06 01:23:53;;;;;;;4.80;1.52;;;27.40;69.00;;;;;;4170857;28;20032;-51
2022/01/06 01:25:56;;;;;;;4.53;1.77;;;27.40;68.90;;;;;;4166247;28;20050;-51
2022/01/06 01:27:58;;;;;;;4.72;1.58;;;27.40;68.90;;;;;;4162788;28;20024;-48
2022/01/06 01:30:09;;;;;;;3.97;1.67;;;27.40;68.90;;;;;;4162744;28;20515;-51
2022/01/06 01:32:12;;;;;;;5.68;2.03;;;27.40;68.90;;;;;;4166441;28;20090;-52
2022/01/06 01:34:20;;;;;;;4.63;1.50;;;27.40;69.00;;;;;;4171996;28;20384;-49
2022/01/06 01:36:22;;;;;;;6.00;1.77;;;27.40;68.90;;;;;;4170950;28;20270;-50
2022/01/06 01:38:24;;;;;;;4.80;1.70;;;27.40;68.90;;;;;;4163827;28;20036;-47
2022/01/06 01:40:27;;;;;;;6.90;1.90;;;27.40;68.90;;;;;;4168398;28;20043;-51
2022/01/06 01:42:29;;;;;;;5.68;1.60;;;27.50;69.00;;;;;;4176239;28;20032;-45
2022/01/06 01:44:33;;;;;;;5.85;1.75;;;27.50;68.90;;;;;;4167686;28;20115;-48
2022/01/06 01:46:42;;;;;;;4.22;1.85;;;27.50;69.10;;;;;;4167064;28;20051;-47
2022/01/06 01:49:44;;;;;;;5.80;1.65;;;27.50;68.80;;;;;;4165152;28;20051;-47
2022/01/06 01:51:08;;;;;;;4.47;1.52;;;27.50;68.70;;;;;;4150372;28;20128;-47
2022/01/06 01:53:11;;;;;;;7.03;1.95;;;27.50;68.60;;;;;;4160292;28;20036;-51
2022/01/06 01:55:20;;;;;;;;;;;27.50;68.60;;;;;;4173683;28;20129;-47
2022/01/06 01:57:22;;;;;;;3.97;1.52;;;27.50;68.60;;;;;;4171954;28;19911;-47
2022/01/06 01:59:24;;;;;;;3.50;1.08;;;27.50;68.60;;;;;;4163376;28;20044;-45
2022/01/06 02:01:27;;;;;;;5.20;1.77;;;27.60;69.20;;;;;;4161835;28;20055;-48
2022/01/06 02:03:29;;;;;;;5.80;1.80;;;27.60;68.50;;;;;;4168691;28;20648;-48
2022/01/06 02:05:31;;;;;;;5.10;2.13;;;27.60;68.60;;;;;;4164603;28;20070;-46
2022/01/06 02:07:35;;;;;;;4.03;1.50;;;27.60;68.50;;;;;;4160839;28;21269;-47
2022/01/06 02:09:37;;;;;;;2.88;1.17;;;27.60;68.50;;;;;;4165952;28;20062;-47
2022/01/06 02:11:39;;;;;;;7.23;2.00;;;27.60;68.40;;;;;;4169019;28;20071;-46
2022/01/06 02:13:53;;;;;;;4.78;1.67;;;27.60;68.40;;;;;;4161843;28;20299;-51
2022/01/06 02:15:56;;;;;;;6.13;1.70;;;27.60;68.40;;;;;;4158450;28;20150;-51
2022/01/06 02:17:58;;;;;;;5.70;2.10;;;27.60;68.40;;;;;;4159918;28;21456;-47
2022/01/06 02:20:02;;;;;;;4.27;1.53;;;27.60;68.30;;;;;;4165303;28;20084;-53
2022/01/06 02:22:04;;;;;;;4.15;1.50;;;27.70;68.40;;;;;;4166935;28;20791;-47
2022/01/06 02:24:07;;;;;;;4.35;1.52;;;27.70;68.30;;;;;;4160098;28;20081;-46
2022/01/06 02:26:09;;;;;;;5.25;1.77;;;27.70;68.30;;;;;;4156862;28;20126;-48
2022/01/06 02:28:11;;;;;;;5.22;1.60;;;27.70;68.20;;;;;;4166778;28;20036;-50
2022/01/06 02:30:14;;;;;;;5.40;2.13;;;27.70;68.20;;;;;;4160065;28;20047;-48
2022/01/06 02:32:17;;;;;;;6.15;2.10;;;27.70;68.20;;;;;;4160960;28;20040;-47
2022/01/06 02:34:20;;;;;;;5.60;1.70;;;27.70;68.20;;;;;;4167274;28;20673;-48
2022/01/06 02:36:22;;;;;;;4.82;1.63;;;27.70;68.20;;;;;;4167654;28;21005;-49
2022/01/06 02:38:24;;;;;;;3.97;1.33;;;27.70;68.10;;;;;;4157207;28;20043;-47
2022/01/06 02:40:27;;;;;;;4.82;1.52;;;27.80;68.20;;;;;;4161329;28;20574;-52
2022/01/06 02:42:30;;;;;;;;;;;27.80;68.20;;;;;;4168270;28;20036;-47
2022/01/06 02:44:34;;;;;;;3.03;1.33;;;27.80;68.10;;;;;;4161294;28;19916;-51
2022/01/06 02:46:39;;;;;;;4.63;1.77;;;27.80;68.10;;;;;;4157675;28;20032;-46
2022/01/06 02:48:41;;;;;;;7.13;1.80;;;27.80;68.00;;;;;;4164402;28;20042;-54
2022/01/06 02:50:53;;;;;;;6.43;2.17;;;27.80;68.00;;;;;;4169656;28;20054;-49
2022/01/06 02:52:56;;;;;;;4.97;1.98;;;27.80;68.00;;;;;;4170598;28;20032;-51
2022/01/06 02:54:58;;;;;;;;;;;27.90;68.00;;;;;;4160835;28;20803;-47
2022/01/06 02:57:02;;;;;;;4.65;1.80;;;27.90;68.00;;;;;;4159600;28;19951;-45
2022/01/06 02:59:04;;;;;;;5.07;1.92;;;27.90;67.90;;;;;;4168840;28;20746;-48
2022/01/06 03:01:06;;;;;;;4.97;1.65;;;27.90;68.00;;;;;;4153884;28;20052;-48
2022/01/06 03:03:08;;;;;;;6.13;1.87;;;27.90;68.00;;;;;;4160320;28;20868;-48
2022/01/06 03:05:12;;;;;;;5.20;1.70;;;27.90;67.90;;;;;;4164044;28;20036;-48
2022/01/06 03:07:14;;;;;;;4.75;1.83;;;27.90;67.80;;;;;;4170459;28;20181;-49
2022/01/06 03:09:26;;;;;;;5.13;1.70;;;27.90;67.90;;;;;;4160585;28;20043;-47
2022/01/06 03:11:29;;;;;;;4.35;1.48;;;27.90;67.80;;;;;;4160652;28;20752;-44
2022/01/06 03:13:31;;;;;;;6.47;1.70;;;27.90;67.80;;;;;;4158098;28;20851;-45
2022/01/06 03:15:33;;;;;;;5.35;1.80;;;28.00;67.80;;;;;;4169237;28;20040;-47
2022/01/06 03:17:37;;;;;;;5.07;1.60;;;28.00;67.90;;;;;;4160825;28;20119;-50
2022/01/06 03:19:39;;;;;;;4.88;1.73;;;28.00;67.70;;;;;;4160050;28;20289;-46
2022/01/06 03:21:41;;;;;;;4.95;1.70;;;28.00;67.70;;;;;;4162451;28;20052;-51
2022/01/06 03:23:43;;;;;;;4.93;1.80;;;28.00;67.60;;;;;;4169225;28;20035;-48
2022/01/06 03:25:46;;;;;;;5.93;2.15;;;28.00;67.60;;;;;;4159654;28;20388;-52
2022/01/06 03:27:48;;;;;;;5.55;1.77;;;28.00;67.60;;;;;;4159519;28;20043;-49
2022/01/06 03:29:51;;;;;;;4.07;1.35;;;28.00;67.60;;;;;;4170082;28;20055;-48
2022/01/06 03:31:53;;;;;;;5.70;1.60;;;28.00;67.50;;;;;;4159297;28;21028;-48
2022/01/06 03:33:55;;;;;;;7.00;2.07;;;28.00;67.50;;;;;;4159669;28;20386;-46
2022/01/06 03:35:57;;;;;;;7.07;2.10;;;28.10;67.50;;;;;;4163766;28;20300;-48
2022/01/06 03:38:00;;;;;;;5.32;1.90;;;28.10;67.50;;;;;;4169638;28;20145;-45
2022/01/06 03:40:05;;;;;;;7.63;2.23;;;28.10;67.50;;;;;;4156998;28;20047;-46
2022/01/06 03:42:07;;;;;;;5.53;2.03;;;28.10;67.40;;;;;;4161552;28;20633;-45
2022/01/06 03:44:09;;;;;;;4.78;1.70;;;28.10;67.40;;;;;;4168745;28;20032;-47
2022/01/06 03:46:11;;;;;;;4.97;1.90;;;28.20;67.40;;;;;;4162553;28;20036;-50
2022/01/06 03:48:13;;;;;;;5.25;1.80;;;28.20;67.40;;;;;;4158954;28;20117;-45
2022/01/06 03:50:17;;;;;;;6.45;1.95;;;28.20;67.30;;;;;;4163591;28;20127;-47
2022/01/06 03:52:19;;;;;;;6.35;1.98;;;28.20;67.20;;;;;;4168332;28;20418;-49
2022/01/06 03:54:21;;;;;;;4.90;1.80;;;28.20;67.20;;;;;;4161072;28;20041;-47
2022/01/06 03:56:23;;;;;;;6.93;2.10;;;28.20;67.20;;;;;;4155800;28;20028;-46
2022/01/06 03:58:25;;;;;;;5.50;1.70;;;28.20;67.20;;;;;;4165697;28;20284;-47
2022/01/06 04:02:13;;;;;;;6.40;1.70;;;28.30;66.60;;;;;;4146134;27;20461;-51
2022/01/06 04:04:15;;;;;;;4.82;1.85;;;28.30;67.10;;;;;;4135566;27;20025;-48
2022/01/06 04:06:18;;;;;;;7.28;2.40;;;28.30;67.10;;;;;;4136632;27;20064;-50
2022/01/06 04:08:20;;;;;;;5.60;1.63;;;28.30;67.10;;;;;;4146666;27;20433;-51
2022/01/06 04:10:22;;;;;;;5.65;1.75;;;28.30;67.00;;;;;;4138818;27;21012;-49
2022/01/06 04:12:24;;;;;;;4.85;1.83;;;28.30;67.00;;;;;;4134663;27;20139;-50
2022/01/06 04:14:26;;;;;;;3.97;1.42;;;28.30;67.00;;;;;;4143805;27;20102;-51
2022/01/06 04:16:30;;;;;;;5.40;1.70;;;28.40;67.00;;;;;;4141937;27;20037;-46
2022/01/06 04:18:32;;;;;;;4.65;1.70;;;28.40;66.90;;;;;;4137291;27;20301;-48
2022/01/06 04:20:34;;;;;;;5.73;1.67;;;28.40;66.90;;;;;;4138148;28;20112;-50
2022/01/06 04:22:37;;;;;;;4.53;1.70;;;28.40;66.80;;;;;;4145744;27;20062;-50
2022/01/06 04:24:39;;;;;;;3.92;1.83;;;28.50;66.80;;;;;;4139261;27;20111;-47
2022/01/06 04:26:41;;;;;;;4.00;1.63;;;28.40;66.70;;;;;;4128166;27;20029;-48
2022/01/06 04:28:43;;;;;;;4.50;1.65;;;28.50;66.70;;;;;;4133781;27;20044;-47
2022/01/06 04:30:46;;;;;;;5.03;1.48;;;28.50;66.70;;;;;;4126808;27;20041;-48
2022/01/06 04:32:48;;;;;;;3.93;1.50;;;28.50;66.60;;;;;;4126185;28;20041;-46
2022/01/06 04:34:50;;;;;;;3.83;1.40;;;28.50;66.60;;;;;;4131177;27;20037;-48
2022/01/06 04:36:55;;;;;;;3.72;1.63;;;28.60;66.60;;;;;;4137228;28;20328;-49
2022/01/06 04:38:57;;;;;;;5.03;1.60;;;28.60;66.50;;;;;;4125746;27;20125;-49
2022/01/06 04:41:00;;;;;;;3.47;1.40;;;28.60;66.40;;;;;;4128962;28;20083;-46
2022/01/06 04:43:02;;;;;;;6.82;1.65;;;28.60;66.70;;;;;;4136237;27;20037;-51
2022/01/06 04:45:05;;;;;;;4.55;1.42;;;28.70;66.30;;;;;;4133811;28;20045;-48
2022/01/06 04:47:07;;;;;;;5.13;1.75;;;28.70;66.20;;;;;;4126690;27;20069;-47
2022/01/06 04:49:10;;;;;;;5.00;1.60;;;28.70;66.20;;;;;;4133283;28;20037;-51
2022/01/06 04:51:12;;;;;;;5.28;1.58;;;28.70;66.20;;;;;;4139891;27;20683;-49
2022/01/06 04:53:14;;;;;;;6.10;1.95;;;28.70;66.20;;;;;;4128496;27;20064;-46
2022/01/06 04:55:17;;;;;;;4.53;1.30;;;28.70;66.20;;;;;;4128004;27;20033;-49
2022/01/06 04:57:19;;;;;;;4.43;1.42;;;28.70;66.20;;;;;;4139222;27;20553;-50
2022/01/06 04:59:21;;;;;;;8.13;2.10;;;28.70;66.20;;;;;;4130725;27;20194;-50
2022/01/06 05:01:23;;;;;;;5.30;1.40;;;28.70;66.20;;;;;;4111594;27;20531;-49
2022/01/06 05:03:25;;;;;;;4.50;1.55;;;28.70;66.70;;;;;;4118930;27;20044;-50
2022/01/06 05:05:28;;;;;;;4.90;1.80;;;28.70;66.10;;;;;;4136274;27;20101;-47
2022/01/06 05:07:30;;;;;;;4.67;1.63;;;28.70;66.10;;;;;;4128936;28;20039;-49
2022/01/06 05:09:32;;;;;;;3.60;1.50;;;28.70;66.10;;;;;;4128909;27;20328;-53
2022/01/06 05:11:34;;;;;;;5.38;1.75;;;28.70;66.10;;;;;;4140386;28;20125;-48
2022/01/06 05:13:36;;;;;;;4.03;1.40;;;28.70;66.10;;;;;;4115668;28;20083;-52
2022/01/06 05:15:38;;;;;;;4.05;1.45;;;28.80;66.10;;;;;;4119473;28;20397;-48
2022/01/06 05:17:42;;;;;;;7.10;1.98;;;28.70;66.00;;;;;;4126856;27;20037;-49
2022/01/06 05:19:44;;;;;;;3.95;1.73;;;28.80;66.00;;;;;;4125825;28;20090;-52
2022/01/06 05:21:46;;;;;;;4.27;1.80;;;28.80;66.00;;;;;;4118680;28;20172;-48
2022/01/06 05:23:49;;;;;;;3.67;1.30;;;28.80;66.00;;;;;;4122103;28;20034;-49
2022/01/06 05:25:51;;;;;;;5.80;1.60;;;28.80;65.80;;;;;;4129221;28;20038;-48
2022/01/06 05:27:55;;;;;;;5.20;1.53;;;28.90;65.70;;;;;;4118641;28;20044;-50
2022/01/06 05:29:57;;;;;;;4.90;1.60;;;28.90;65.60;;;;;;4114150;28;20098;-49
2022/01/06 05:31:59;;;;;;;4.33;1.57;;;28.90;65.60;;;;;;4127117;28;20037;-49
2022/01/06 05:34:01;;;;;;;3.80;1.43;;;28.90;65.60;;;;;;4121424;28;20760;-47
2022/01/06 05:36:03;;;;;;;5.10;1.77;;;28.90;65.60;;;;;;4116530;28;20402;-51
2022/01/06 05:38:06;;;;;;;4.55;1.42;;;28.90;65.50;;;;;;4120598;27;21167;-51
2022/01/06 05:40:09;;;;;;;4.03;1.40;;;28.90;65.50;;;;;;4123309;28;20034;-46
2022/01/06 05:42:13;;;;;;;4.18;1.65;;;28.90;65.50;;;;;;4117173;28;20087;-52
2022/01/06 05:44:15;;;;;;;5.30;1.52;;;28.90;65.40;;;;;;4113242;28;20033;-51
2022/01/06 05:46:18;;;;;;;5.55;2.00;;;28.90;65.40;;;;;;4127206;28;20040;-49
2022/01/06 05:48:21;;;;;;;5.00;1.52;;;28.90;65.50;;;;;;4122937;28;20744;-48
2022/01/06 05:50:23;;;;;;;7.00;1.77;;;28.90;65.40;;;;;;4119835;28;20184;-50
2022/01/06 05:52:25;;;;;;;5.93;1.80;;;28.90;65.40;;;;;;4121913;28;20040;-52
2022/01/06 05:54:28;;;;;;;4.30;1.45;;;28.90;65.40;;;;;;4135080;28;20051;-51
2022/01/06 05:56:30;;;;;;;4.10;1.60;;;28.90;65.30;;;;;;4121804;28;20121;-48
2022/01/06 05:58:32;;;;;;;5.07;1.75;;;28.90;65.40;;;;;;4122702;28;20052;-46
2022/01/06 06:00:35;;;;;;;4.60;1.40;;;28.90;65.40;;;;;;4128241;28;20046;-49
2022/01/06 06:02:37;;;;;;;5.10;2.05;;;28.90;65.30;;;;;;4118625;28;21295;-47
2022/01/06 06:04:39;;;;;;;5.53;1.50;;;28.90;65.30;;;;;;4117266;28;20384;-48
2022/01/06 06:06:42;;;;;;;6.57;1.77;;;28.90;65.40;;;;;;4120874;27;20092;-49
2022/01/06 06:08:44;;;;;;;6.30;2.10;;;28.90;65.40;;;;;;4125004;28;20044;-51
2022/01/06 06:10:46;;;;;;;4.78;1.80;;;28.90;65.30;;;;;;4115892;28;20065;-46
2022/01/06 06:12:52;;;;;;;5.95;1.80;;;28.90;65.30;;;;;;4114967;28;20039;-46
2022/01/06 06:14:55;;;;;;;6.38;1.95;;;28.90;65.30;;;;;;4121595;28;20065;-50
2022/01/06 06:16:57;;;;;;;5.22;1.60;;;28.90;65.40;;;;;;4120940;28;20044;-50
2022/01/06 06:18:59;;;;;;;3.90;1.45;;;28.90;65.30;;;;;;4116117;28;20041;-50
2022/01/06 06:21:01;;;;;;;4.17;1.50;;;28.90;65.30;;;;;;4114563;28;20056;-51
2022/01/06 06:23:03;;;;;;;4.60;1.75;;;28.90;65.30;;;;;;4117477;27;20038;-49
2022/01/06 06:25:06;;;;;;;4.57;1.52;;;28.90;65.20;;;;;;4110184;28;21650;-47
2022/01/06 06:27:08;;;;;;;5.32;2.03;;;28.90;65.30;;;;;;4113814;28;20045;-48
2022/01/06 06:29:10;;;;;;;6.23;1.70;;;28.90;65.30;;;;;;4126774;28;20041;-49
2022/01/06 06:31:12;;;;;;;6.78;1.83;;;28.90;65.30;;;;;;4118755;27;20052;-48
2022/01/06 06:33:15;;;;;;;4.72;1.52;;;28.90;65.30;;;;;;4117262;28;20036;-48
2022/01/06 06:35:17;;;;;;;5.88;1.75;;;28.90;65.30;;;;;;4121262;28;20048;-54
2022/01/06 06:37:20;;;;;;;6.55;1.80;;;28.90;65.30;;;;;;4126042;28;20058;-46
2022/01/06 06:39:22;;;;;;;6.22;2.08;;;28.90;65.30;;;;;;4112921;28;20045;-48
2022/01/06 06:41:24;;;;;;;5.15;1.83;;;28.90;65.30;;;;;;4115543;28;20102;-49
2022/01/06 06:43:26;;;;;;;4.53;1.60;;;28.90;65.30;;;;;;4125663;28;20128;-47
2022/01/06 06:45:29;;;;;;;4.50;1.80;;;28.90;65.30;;;;;;4115838;28;20101;-49
2022/01/06 06:47:32;;;;;;;4.70;1.58;;;28.90;65.30;;;;;;4112131;28;20290;-51
2022/01/06 06:49:36;;;;;;;6.00;1.90;;;28.90;65.30;;;;;;4119202;28;20121;-50
2022/01/06 06:51:38;;;;;;;7.38;2.20;;;28.90;65.30;;;;;;4126026;28;20037;-47
2022/01/06 06:53:41;;;;;;;6.07;2.10;;;29.00;65.30;;;;;;4115285;27;20045;-45
2022/01/06 06:55:44;;;;;;;4.68;1.80;;;28.90;65.30;;;;;;4117903;28;20150;-49
2022/01/06 06:57:46;;;;;;;4.18;1.63;;;28.90;65.20;;;;;;4124514;28;20538;-49
2022/01/06 06:59:48;;;;;;;5.15;1.75;;;29.00;65.30;;;;;;4119030;28;20041;-47
2022/01/06 07:01:51;;;;;;;6.17;1.67;;;29.00;65.30;;;;;;4116040;28;20512;-48
2022/01/06 07:03:53;;;;;;;5.20;1.90;;;28.90;65.20;;;;;;4123285;28;20037;-47
2022/01/06 07:05:55;;;;;;;4.40;1.95;;;28.90;65.30;;;;;;4122904;28;21446;-49
2022/01/06 07:07:57;;;;;;;3.70;1.65;;;28.90;65.20;;;;;;4117671;28;20044;-47
2022/01/06 07:10:00;;;;;;;8.95;2.03;;;29.00;65.30;;;;;;4115422;28;20114;-50
2022/01/06 07:12:02;;;;;;;5.50;1.80;;;29.00;65.30;;;;;;4119359;28;20036;-47
2022/01/06 07:14:04;;;;;;;5.55;1.65;;;29.00;65.30;;;;;;4112862;28;20042;-52
2022/01/06 07:16:07;;;;;;;6.22;2.08;;;29.00;65.30;;;;;;4113008;28;20059;-52
2022/01/06 07:18:09;;;;;;;5.57;1.97;;;29.00;65.20;;;;;;4124753;28;20089;-53
2022/01/06 07:20:12;;;;;;;7.03;1.67;;;29.00;65.30;;;;;;4118002;27;20099;-52
2022/01/06 07:22:14;;;;;;;5.88;2.03;;;29.00;65.20;;;;;;4112850;28;20644;-53
2022/01/06 07:24:18;;;;;;;4.43;1.60;;;29.00;65.10;;;;;;4116507;28;20044;-48
2022/01/06 07:26:21;;;;;;;4.88;1.90;;;29.00;65.10;;;;;;4124414;28;20046;-47
2022/01/06 07:28:23;;;;;;;8.32;2.03;;;29.00;65.10;;;;;;4108594;27;20925;-48
2022/01/06 07:30:25;;;;;;;5.53;1.93;;;29.00;65.10;;;;;;4113604;28;20738;-52
2022/01/06 07:32:28;;;;;;;6.00;1.95;;;29.00;65.10;;;;;;4121510;28;20037;-49
2022/01/06 07:34:30;;;;;;;5.47;1.70;;;29.00;65.00;;;;;;4120588;28;20898;-48
2022/01/06 07:36:32;;;;;;;8.73;2.27;;;29.00;65.00;;;;;;4114360;28;20294;-51
2022/01/06 07:38:35;;;;;;;6.10;1.90;;;29.00;65.00;;;;;;4116598;28;20132;-50
2022/01/06 07:40:37;;;;;;;4.35;1.80;;;29.00;65.00;;;;;;4125142;28;20046;-47
2022/01/06 07:42:39;;;;;;;8.57;2.03;;;29.00;65.00;;;;;;4117408;28;20065;-50
2022/01/06 07:44:42;;;;;;;7.10;1.85;;;29.00;65.00;;;;;;4116240;28;20022;-52
2022/01/06 07:46:46;;;;;;;6.20;1.60;;;29.00;65.00;;;;;;4124669;28;20063;-46
2022/01/06 07:48:58;;;;;;;7.00;1.88;;;29.00;65.00;;;;;;4120052;28;20042;-50
2022/01/06 07:51:00;;;;;;;6.35;1.67;;;29.00;65.00;;;;;;4120767;28;21056;-48
2022/01/06 07:53:03;;;;;;;6.93;2.20;;;29.00;65.00;;;;;;4115767;28;20415;-46
2022/01/06 07:55:06;;;;;;;5.05;1.90;;;29.00;65.00;;;;;;4116837;28;20026;-48
2022/01/06 07:57:08;;;;;;;5.07;2.05;;;29.00;65.10;;;;;;4127293;28;20572;-50
2022/01/06 07:59:11;;;;;;;5.18;1.65;;;28.90;65.00;;;;;;4115582;28;20779;-50
2022/01/06 08:01:15;;;;;;;5.05;1.67;;;28.90;63.60;;;;;;4116317;28;20060;-51
2022/01/06 08:03:17;;;;;;;3.80;1.70;;;28.90;61.20;;;;;;4120079;28;20041;-52
2022/01/06 08:05:23;;;;;;;4.03;1.70;;;28.70;58.80;;;;;;4120476;28;20695;-49
2022/01/06 08:07:25;;;;;;;4.78;1.90;;;28.60;58.10;;;;;;4108468;28;20579;-48
2022/01/06 08:09:27;;;;;;;3.80;1.80;;;28.40;56.40;;;;;;4112346;28;20068;-51
2022/01/06 08:11:29;;;;;;;3.55;1.60;;;28.20;55.70;;;;;;4120915;28;20037;-51
2022/01/06 08:13:32;;;;;;;3.83;1.90;;;28.00;55.20;;;;;;4116918;28;20049;-51
2022/01/06 08:15:34;;;;;;;4.50;1.65;;;27.80;55.00;;;;;;4112611;28;20107;-50
2022/01/06 08:17:37;;;;;;;3.83;1.77;;;27.60;54.60;;;;;;4119065;28;20045;-51
2022/01/06 08:19:40;;;;;;;3.90;1.92;;;27.50;54.30;;;;;;4119421;28;20085;-51
2022/01/06 08:21:44;;;;;;;4.05;1.85;;;27.30;53.70;;;;;;4113884;28;20055;-50
2022/01/06 08:23:46;;;;;;;3.88;1.50;;;27.20;54.00;;;;;;4108257;28;20033;-48
2022/01/06 08:25:48;;;;;;;3.28;1.60;;;27.00;53.70;;;;;;4123111;28;20056;-49
2022/01/06 08:27:50;;;;;;;2.80;1.53;;;26.90;53.80;;;;;;4113651;28;22197;-50
2022/01/06 08:29:53;;;;;;;2.45;1.38;;;26.70;53.60;;;;;;4113250;28;20385;-47
2022/01/06 08:31:55;;;;;;;2.70;1.58;;;26.60;53.60;;;;;;4115263;28;20437;-48
2022/01/06 08:33:57;;;;;;;4.30;1.60;;;26.50;53.30;;;;;;4119202;28;20898;-51
2022/01/06 08:35:59;;;;;;;3.13;1.40;;;26.30;53.60;;;;;;4112231;28;20052;-52
2022/01/06 08:38:01;;;;;;;3.88;1.65;;;26.20;53.60;;;;;;4113417;28;20073;-52
2022/01/06 08:40:04;;;;;;;4.55;1.83;;;26.10;53.40;;;;;;4120753;28;20057;-52
2022/01/06 08:42:07;;;;;;;3.90;1.70;;;26.00;53.60;;;;;;4112550;28;20053;-52
2022/01/06 08:44:09;;;;;;;4.82;1.52;;;25.90;54.00;;;;;;4109766;28;20165;-48
2022/01/06 08:46:11;;;;;;;3.78;1.70;;;25.80;53.70;;;;;;4119981;28;20124;-53
2022/01/06 08:48:13;;;;;;;3.97;1.73;;;25.70;53.80;;;;;;4117296;28;20045;-47
2022/01/06 08:50:16;;;;;;;4.93;1.77;;;25.60;53.70;;;;;;4115934;28;20043;-50
2022/01/06 08:52:18;;;;;;;3.55;1.42;;;25.40;53.90;;;;;;4114982;28;20041;-49
2022/01/06 08:54:20;;;;;;;3.72;1.42;;;25.40;54.30;;;;;;4125949;28;20503;-50
2022/01/06 08:56:22;;;;;;;3.45;1.73;;;25.30;55.40;;;;;;4114583;28;20052;-47
2022/01/06 08:58:24;;;;;;;2.97;1.25;;;25.30;56.90;;;;;;4116553;28;20037;-47
2022/01/06 09:00:27;;;;;;;4.20;1.80;;;25.40;57.90;;;;;;4120160;28;20064;-49
2022/01/06 09:02:29;;;;;;;4.32;1.80;;;25.50;58.70;;;;;;4106055;27;21811;-48
2022/01/06 09:04:31;;;;;;;5.32;2.00;;;25.60;59.40;;;;;;4108915;28;20049;-50
2022/01/06 09:06:33;;;;;;;4.30;1.67;;;25.60;59.70;;;;;;4120899;28;20094;-51
2022/01/06 09:08:35;;;;;;;5.85;2.28;;;25.70;60.20;;;;;;4121818;28;21477;-51
2022/01/06 09:10:38;;;;;;;5.30;1.83;;;25.80;60.80;;;;;;4115572;28;20037;-49
2022/01/06 09:12:40;;;;;;;5.70;2.13;;;25.80;60.90;;;;;;4114722;28;20112;-51
2022/01/06 09:14:42;;;;;;;5.07;1.90;;;25.90;61.60;;;;;;4125264;28;21169;-48
2022/01/06 09:16:45;;;;;;;5.53;1.83;;;26.00;61.80;;;;;;4113655;28;20041;-46
2022/01/06 09:18:47;;;;;;;4.27;1.50;;;26.00;62.10;;;;;;4115233;28;20067;-50
2022/01/06 09:20:49;;;;;;;4.35;1.65;;;26.00;62.20;;;;;;4123383;28;22373;-51
2022/01/06 09:22:52;;;;;;;3.55;1.35;;;26.10;62.50;;;;;;4119245;28;22185;-48
2022/01/06 09:24:54;;;;;;;4.90;1.75;;;26.10;62.60;;;;;;4113799;28;20072;-51
2022/01/06 09:26:56;;;;;;;5.53;1.80;;;26.20;62.80;;;;;;4120023;28;20060;-52
2022/01/06 09:28:58;;;;;;;5.68;2.10;;;26.20;63.00;;;;;;4124183;28;21367;-48
2022/01/06 09:31:00;;;;;;;7.75;1.83;;;26.20;63.00;;;;;;4116342;28;20041;-51
2022/01/06 09:33:02;;;;;;;3.83;1.67;;;26.30;63.40;;;;;;4116308;28;20074;-47
2022/01/06 09:35:04;;;;;;;4.73;1.53;;;26.30;63.30;;;;;;4126477;28;20055;-49
2022/01/06 09:37:07;;;;;;;5.78;1.58;;;26.30;63.70;;;;;;4113057;27;20043;-48
2022/01/06 09:39:12;;;;;;;4.78;1.73;;;26.40;63.80;;;;;;4115294;28;20041;-49
2022/01/06 09:41:14;;;;;;;4.30;1.70;;;26.40;63.90;;;;;;4120446;28;20135;-52
2022/01/06 09:43:23;;;;;;;4.30;1.48;;;26.40;64.00;;;;;;4126800;28;20789;-50
2022/01/06 09:45:27;;;;;;;4.50;1.73;;;26.40;63.90;;;;;;4120639;28;20160;-50
2022/01/06 09:47:30;;;;;;;4.72;1.67;;;26.50;64.10;;;;;;4116212;28;20241;-51
2022/01/06 09:49:31;;;;;;;;;;;26.50;64.20;;;;;;4119043;28;20660;-48
2022/01/06 09:51:33;;;;;;;5.25;1.95;;;26.50;64.20;;;;;;4129240;28;19913;-49
2022/01/06 09:53:35;;;;;;;5.82;1.90;;;26.60;64.70;;;;;;4120139;28;20037;-48
2022/01/06 09:55:39;;;;;;;5.45;1.83;;;26.60;64.40;;;;;;4122692;27;20042;-49
2022/01/06 09:57:57;;;;;;;4.97;1.65;;;26.60;64.50;;;;;;4131341;28;20041;-52
2022/01/06 09:59:59;;;;;;;4.70;1.35;;;26.60;64.60;;;;;;4122757;28;20033;-47
2022/01/06 10:02:16;;;;;;;4.15;1.38;;;26.60;64.10;;;;;;4168476;27;20428;-45
2022/01/06 10:04:29;;;;;;;5.60;1.65;;;26.70;64.70;;;;;;4175969;28;20121;-48
2022/01/06 10:06:31;;;;;;;5.65;1.70;;;26.70;64.60;;;;;;4174182;28;20046;-54
2022/01/06 10:08:33;;;;;;;3.88;1.60;;;26.70;64.90;;;;;;4176171;28;21528;-44
2022/01/06 10:10:36;;;;;;;5.22;2.17;;;26.70;64.90;;;;;;4168978;28;20048;-45
2022/01/06 10:12:40;;;;;;;3.75;1.40;;;26.80;65.00;;;;;;4169300;28;20382;-51
2022/01/06 10:14:49;;;;;;;4.95;1.67;;;26.80;65.00;;;;;;4178154;28;20044;-49
2022/01/06 10:16:51;;;;;;;4.65;1.73;;;26.80;65.00;;;;;;4176730;28;20024;-47
2022/01/06 10:19:06;;;;;;;5.13;1.75;;;26.80;65.10;;;;;;4168141;28;20389;-48
2022/01/06 10:21:15;;;;;;;3.55;1.33;;;26.80;65.00;;;;;;4169605;28;20772;-54
2022/01/06 10:23:17;;;;;;;5.72;1.73;;;26.80;65.20;;;;;;4166802;28;20686;-50
2022/01/06 10:25:22;;;;;;;6.05;1.75;;;26.90;65.40;;;;;;4166847;28;20067;-48
2022/01/06 10:27:25;;;;;;;4.07;1.70;;;26.90;65.20;;;;;;4157735;28;20047;-48
2022/01/06 10:29:33;;;;;;;5.15;1.98;;;26.90;65.40;;;;;;4156549;28;21325;-52
2022/01/06 10:31:35;;;;;;;4.53;1.73;;;26.90;65.30;;;;;;4150465;28;20064;-47
2022/01/06 10:33:39;;;;;;;5.68;1.65;;;27.00;65.40;;;;;;4149525;28;20123;-51
2022/01/06 10:35:41;;;;;;;3.83;1.60;;;26.90;65.40;;;;;;4155965;28;20056;-50
2022/01/06 10:37:46;;;;;;;4.20;1.83;;;26.90;65.40;;;;;;4158220;28;20520;-51
2022/01/06 10:39:50;;;;;;;6.20;1.75;;;27.00;65.40;;;;;;4149237;28;20630;-47
2022/01/06 10:41:52;;;;;;;4.75;1.45;;;27.00;65.40;;;;;;4150529;28;20105;-47
2022/01/06 10:43:58;;;;;;;4.70;1.60;;;27.00;65.00;;;;;;4156447;28;20033;-51
2022/01/06 10:46:05;;;;;;;4.43;1.55;;;27.00;65.40;;;;;;4158440;28;20040;-50
2022/01/06 10:48:07;;;;;;;8.85;2.20;;;27.10;65.50;;;;;;4151760;28;20147;-51
2022/01/06 10:50:23;;;;;;;3.40;1.27;;;27.00;65.40;;;;;;4150437;28;20091;-48
2022/01/06 10:52:28;;;;;;;4.72;1.38;;;27.10;65.40;;;;;;4149548;28;20029;-47